Time;durP1;ratioP1;P1;durP2;ratioP2;P2;SDS_P1;SDS_P2;PMS_P1;PMS_P2;Temp;Humidity;BMP_temperature;BMP_pressure;BME280_temperature;BME280_humidity;BME280_pressure;Samples;Min_cycle;Max_cycle;Signal;HPM_P1;HPM_P2
2021/09/15 00:00:53;;;;;;;16.07;14.77;;;22.60;99.90;;;;;;6126563;23;20450;-89
2021/09/15 00:03:20;;;;;;;16.93;15.33;;;22.50;99.90;;;;;;6126062;23;20421;-88
2021/09/15 00:05:46;;;;;;;16.93;15.23;;;22.50;99.90;;;;;;6132358;23;20406;-88
2021/09/15 00:08:13;;;;;;;16.03;14.63;;;22.50;99.90;;;;;;6149780;23;20395;-89
2021/09/15 00:10:40;;;;;;;17.43;15.73;;;22.50;99.90;;;;;;6136303;23;20509;-89
2021/09/15 00:13:07;;;;;;;17.43;15.83;;;22.60;99.90;;;;;;6148736;23;20431;-90
2021/09/15 00:15:35;;;;;;;19.83;17.27;;;22.50;99.90;;;;;;6135555;23;20948;-89
2021/09/15 00:18:02;;;;;;;19.60;17.50;;;22.50;99.90;;;;;;6129759;23;20406;-89
2021/09/15 00:20:29;;;;;;;20.63;18.70;;;22.60;99.90;;;;;;6128060;23;20419;-89
2021/09/15 00:22:55;;;;;;;18.50;16.73;;;22.50;99.90;;;;;;6128597;23;20414;-89
2021/09/15 00:25:22;;;;;;;19.00;17.00;;;22.50;99.90;;;;;;6128723;23;20421;-89
2021/09/15 00:27:49;;;;;;;21.20;18.23;;;22.50;99.90;;;;;;6128569;23;20413;-89
2021/09/15 00:30:16;;;;;;;20.10;18.23;;;22.50;99.90;;;;;;6126403;23;20473;-89
2021/09/15 00:32:44;;;;;;;19.73;17.83;;;22.60;99.90;;;;;;6130726;23;20441;-89
2021/09/15 00:35:12;;;;;;;19.70;17.73;;;22.60;99.90;;;;;;6135522;23;20422;-89
2021/09/15 00:37:39;;;;;;;20.37;16.90;;;22.40;99.90;;;;;;6136572;23;20427;-89
2021/09/15 00:40:07;;;;;;;18.00;16.07;;;22.40;99.90;;;;;;6137080;23;20403;-89
2021/09/15 00:42:34;;;;;;;17.77;15.97;;;22.30;99.90;;;;;;6127965;23;20422;-89
2021/09/15 00:45:01;;;;;;;16.40;14.80;;;22.30;99.90;;;;;;6140828;23;20469;-88
2021/09/15 00:47:28;;;;;;;15.67;14.17;;;22.30;99.90;;;;;;6140132;23;20410;-89
2021/09/15 00:49:56;;;;;;;15.20;13.70;;;22.40;99.90;;;;;;6142045;23;20409;-89
2021/09/15 00:52:23;;;;;;;16.40;14.80;;;22.30;99.90;;;;;;6139261;23;20428;-89
2021/09/15 00:54:50;;;;;;;16.33;14.80;;;22.20;99.90;;;;;;6152935;23;20497;-89
2021/09/15 00:57:17;;;;;;;19.63;15.33;;;22.20;99.90;;;;;;6144256;23;20413;-89
2021/09/15 00:59:44;;;;;;;16.20;14.70;;;22.20;99.90;;;;;;6137376;23;20394;-89
2021/09/15 01:02:11;;;;;;;18.27;16.40;;;22.20;99.90;;;;;;6130624;23;20765;-88
2021/09/15 01:04:39;;;;;;;18.80;17.00;;;22.30;99.90;;;;;;6142891;23;20420;-88
2021/09/15 01:07:09;;;;;;;16.53;14.83;;;22.30;99.90;;;;;;6143084;23;20410;-92
2021/09/15 01:09:37;;;;;;;17.50;15.70;;;22.30;99.90;;;;;;6141698;23;20397;-89
2021/09/15 01:12:05;;;;;;;21.93;16.47;;;22.20;99.90;;;;;;6128393;23;20454;-88
2021/09/15 01:14:32;;;;;;;17.77;15.87;;;22.20;99.90;;;;;;6130618;23;20433;-90
2021/09/15 01:17:00;;;;;;;16.27;14.60;;;22.10;99.90;;;;;;6141516;23;20435;-89
2021/09/15 01:19:28;;;;;;;17.67;15.80;;;22.20;99.90;;;;;;6145134;23;20441;-89
2021/09/15 01:21:56;;;;;;;18.70;17.00;;;22.10;99.90;;;;;;6133744;23;20427;-88
2021/09/15 01:24:26;;;;;;;19.40;17.47;;;22.10;99.90;;;;;;6131798;23;20445;-88
2021/09/15 01:26:53;;;;;;;18.67;17.07;;;22.10;99.90;;;;;;6127580;23;20418;-89
2021/09/15 01:29:22;;;;;;;18.83;16.67;;;22.10;99.90;;;;;;6127101;23;20424;-89
2021/09/15 01:32:00;;;;;;;19.93;17.90;;;22.00;99.90;;;;;;6136884;23;20452;-89
2021/09/15 01:34:28;;;;;;;17.83;16.17;;;22.00;99.90;;;;;;6129273;23;20420;-89
2021/09/15 01:36:56;;;;;;;18.70;16.80;;;22.00;99.90;;;;;;6130406;23;20480;-88
2021/09/15 01:39:24;;;;;;;18.03;16.17;;;22.00;99.90;;;;;;6130208;23;20445;-88
2021/09/15 01:41:51;;;;;;;15.70;14.33;;;22.00;99.90;;;;;;6129768;23;20953;-89
2021/09/15 01:44:19;;;;;;;15.57;14.10;;;22.00;99.90;;;;;;6129848;23;20413;-88
2021/09/15 01:46:48;;;;;;;16.30;14.87;;;22.00;99.90;;;;;;6129451;23;20416;-88
2021/09/15 01:49:16;;;;;;;17.33;14.20;;;22.00;99.90;;;;;;6130153;23;20423;-89
2021/09/15 01:51:43;;;;;;;14.87;13.57;;;22.00;99.90;;;;;;6130560;23;20534;-88
2021/09/15 01:54:12;;;;;;;17.43;13.77;;;22.00;99.90;;;;;;6134987;23;20484;-88
2021/09/15 01:56:39;;;;;;;14.23;12.77;;;22.00;99.90;;;;;;6144353;23;20418;-87
2021/09/15 01:59:06;;;;;;;14.00;12.60;;;22.00;99.90;;;;;;6135347;23;20409;-88
2021/09/15 02:01:33;;;;;;;15.10;13.67;;;21.90;99.90;;;;;;6130098;23;20437;-88
2021/09/15 02:04:00;;;;;;;14.07;12.90;;;22.00;99.90;;;;;;6133585;23;20448;-88
2021/09/15 02:06:27;;;;;;;14.30;12.80;;;21.90;99.90;;;;;;6146309;23;20796;-89
2021/09/15 02:08:54;;;;;;;13.60;12.30;;;21.90;99.90;;;;;;6138074;23;20437;-88
2021/09/15 02:11:22;;;;;;;15.27;13.83;;;21.90;99.90;;;;;;6129537;23;20435;-88
2021/09/15 02:13:50;;;;;;;13.90;12.70;;;22.00;99.90;;;;;;6129238;23;20480;-88
2021/09/15 02:16:18;;;;;;;16.33;14.80;;;22.00;99.90;;;;;;6129730;23;20881;-88
2021/09/15 02:18:44;;;;;;;15.40;13.80;;;21.90;99.90;;;;;;6133042;23;20525;-88
2021/09/15 02:21:23;;;;;;;17.53;15.83;;;21.90;99.90;;;;;;6150521;23;20467;-91
2021/09/15 02:23:50;;;;;;;14.67;13.23;;;21.80;99.90;;;;;;6129895;23;20461;-89
2021/09/15 02:26:17;;;;;;;16.17;14.70;;;21.80;99.90;;;;;;6128865;23;20476;-89
2021/09/15 02:28:45;;;;;;;16.43;14.13;;;21.80;99.90;;;;;;6135348;23;20421;-89
2021/09/15 02:31:12;;;;;;;14.90;13.33;;;21.70;99.90;;;;;;6130688;23;20427;-89
2021/09/15 02:33:39;;;;;;;15.23;13.73;;;21.70;99.90;;;;;;6129312;23;20451;-90
2021/09/15 02:36:06;;;;;;;15.33;13.93;;;21.60;99.90;;;;;;6133908;23;20479;-89
2021/09/15 02:38:33;;;;;;;16.33;13.70;;;21.50;99.90;;;;;;6132742;23;20421;-89
2021/09/15 02:41:00;;;;;;;15.77;14.13;;;21.60;99.90;;;;;;6149977;23;20454;-90
2021/09/15 02:43:26;;;;;;;14.63;13.10;;;21.60;99.90;;;;;;6142906;23;20429;-90
2021/09/15 02:45:54;;;;;;;18.27;13.77;;;21.60;99.90;;;;;;6139570;23;20418;-81
2021/09/15 02:48:21;;;;;;;13.10;11.70;;;21.60;99.90;;;;;;6147516;23;20392;-80
2021/09/15 02:50:48;;;;;;;14.43;13.00;;;21.60;99.90;;;;;;6147889;23;20422;-79
2021/09/15 02:53:15;;;;;;;14.43;12.67;;;21.50;99.90;;;;;;6147103;23;20421;-80
2021/09/15 02:55:41;;;;;;;13.20;12.00;;;21.50;99.90;;;;;;6146326;23;20436;-80
2021/09/15 02:58:08;;;;;;;13.07;10.60;;;21.50;99.90;;;;;;6152040;23;20477;-79
2021/09/15 03:00:35;;;;;;;14.30;12.90;;;21.50;99.90;;;;;;6153709;23;20430;-80
2021/09/15 03:03:04;;;;;;;13.83;11.10;;;21.50;99.90;;;;;;6151614;23;20417;-80
2021/09/15 03:05:31;;;;;;;12.00;11.00;;;21.50;99.90;;;;;;6149422;23;20778;-80
2021/09/15 03:07:59;;;;;;;12.43;10.77;;;21.60;99.90;;;;;;6144181;23;20484;-79
2021/09/15 03:10:26;;;;;;;13.43;12.10;;;21.50;99.90;;;;;;6144932;23;20445;-80
2021/09/15 03:12:53;;;;;;;13.00;11.70;;;21.50;99.90;;;;;;6145609;23;20447;-80
2021/09/15 03:15:20;;;;;;;13.77;12.37;;;21.50;99.90;;;;;;6144967;23;20472;-80
2021/09/15 03:17:47;;;;;;;15.03;13.63;;;21.50;99.90;;;;;;6136297;23;20467;-90
2021/09/15 03:20:16;;;;;;;14.47;13.10;;;21.50;99.90;;;;;;6131961;23;20420;-90
2021/09/15 03:22:43;;;;;;;13.73;12.43;;;21.50;99.90;;;;;;6136357;23;20417;-91
2021/09/15 03:25:10;;;;;;;13.63;12.23;;;21.50;99.90;;;;;;6147508;23;20421;-90
2021/09/15 03:27:39;;;;;;;14.60;13.20;;;21.50;99.90;;;;;;6151243;23;20420;-90
2021/09/15 03:30:09;;;;;;;13.30;12.00;;;21.50;99.90;;;;;;6142987;23;20503;-89
2021/09/15 03:32:37;;;;;;;15.90;13.03;;;21.50;99.90;;;;;;6140762;23;20472;-90
2021/09/15 03:35:05;;;;;;;15.70;12.80;;;21.50;99.90;;;;;;6136607;23;20482;-91
2021/09/15 03:37:33;;;;;;;13.57;11.83;;;21.50;99.90;;;;;;6150226;23;20401;-90
2021/09/15 03:40:01;;;;;;;13.87;12.43;;;21.60;99.90;;;;;;6131118;23;20425;-88
2021/09/15 03:42:28;;;;;;;13.93;12.63;;;21.60;99.90;;;;;;6130985;23;20420;-89
2021/09/15 03:44:56;;;;;;;12.90;11.60;;;21.50;99.90;;;;;;6143360;23;20420;-91
2021/09/15 03:47:23;;;;;;;13.90;12.60;;;21.50;99.90;;;;;;6137128;23;20412;-91
2021/09/15 03:49:51;;;;;;;14.77;13.47;;;21.50;99.90;;;;;;6130019;23;20416;-91
2021/09/15 03:52:18;;;;;;;13.60;12.43;;;21.40;99.90;;;;;;6133373;23;20438;-89
2021/09/15 03:54:47;;;;;;;14.27;12.93;;;21.40;99.90;;;;;;6142340;23;20390;-90
2021/09/15 03:57:14;;;;;;;13.57;12.17;;;21.40;99.90;;;;;;6131689;23;20472;-89
2021/09/15 03:59:40;;;;;;;12.73;11.73;;;21.40;99.90;;;;;;6129401;23;20422;-92
2021/09/15 04:02:07;;;;;;;11.90;10.90;;;21.30;99.90;;;;;;6129833;23;20440;-89
2021/09/15 04:04:35;;;;;;;14.17;12.27;;;21.30;99.90;;;;;;6130567;23;20409;-89
2021/09/15 04:07:01;;;;;;;14.27;12.50;;;21.30;99.90;;;;;;6132695;23;20418;-89
2021/09/15 04:09:28;;;;;;;14.00;12.50;;;21.30;99.90;;;;;;6130255;23;20420;-89
2021/09/15 04:11:57;;;;;;;13.87;12.40;;;21.30;99.90;;;;;;6129585;23;20432;-89
2021/09/15 04:14:25;;;;;;;17.03;13.47;;;21.30;99.90;;;;;;6129325;23;20450;-89
2021/09/15 04:16:52;;;;;;;15.50;14.00;;;21.20;99.90;;;;;;6130847;23;20421;-89
2021/09/15 04:19:19;;;;;;;14.50;12.97;;;21.20;99.90;;;;;;6130216;23;20420;-89
2021/09/15 04:21:46;;;;;;;17.20;12.27;;;21.20;99.90;;;;;;6130337;23;20456;-89
2021/09/15 04:24:38;;;;;;;12.57;11.47;;;21.20;99.90;;;;;;6128932;23;20404;-90
2021/09/15 04:32:38;;;;;;;12.53;10.67;;;21.10;99.90;;;;;;6145389;23;20504;-88
2021/09/15 04:35:06;;;;;;;12.00;10.87;;;21.10;99.90;;;;;;6154645;23;20400;-88
2021/09/15 04:37:33;;;;;;;12.10;11.03;;;21.10;99.90;;;;;;6151945;23;20431;-87
2021/09/15 04:40:00;;;;;;;14.07;11.70;;;21.10;99.90;;;;;;6126982;23;20447;-87
2021/09/15 04:42:28;;;;;;;14.00;12.70;;;21.10;99.90;;;;;;6129427;23;20424;-87
2021/09/15 04:44:55;;;;;;;15.30;13.70;;;21.10;99.90;;;;;;6134393;23;20396;-87
2021/09/15 04:47:22;;;;;;;12.67;11.50;;;21.10;99.90;;;;;;6132773;23;20385;-87
2021/09/15 04:49:48;;;;;;;14.63;13.30;;;21.10;99.90;;;;;;6133844;23;20405;-87
2021/09/15 04:52:15;;;;;;;14.30;12.90;;;21.10;99.90;;;;;;6128668;23;20424;-87
2021/09/15 04:54:42;;;;;;;13.60;12.40;;;21.20;99.90;;;;;;6137617;23;20451;-87
2021/09/15 04:57:09;;;;;;;14.00;12.63;;;21.20;99.90;;;;;;6135721;23;20730;-87
2021/09/15 04:59:37;;;;;;;15.40;13.80;;;21.20;99.90;;;;;;6125350;23;20499;-87
2021/09/15 05:02:04;;;;;;;13.43;12.03;;;21.20;99.90;;;;;;6127158;23;20467;-87
2021/09/15 05:04:30;;;;;;;14.40;12.47;;;21.20;99.90;;;;;;6135834;23;20386;-87
2021/09/15 05:06:57;;;;;;;14.73;13.50;;;21.20;99.90;;;;;;6137408;23;20409;-86
2021/09/15 05:09:24;;;;;;;13.90;12.53;;;21.20;99.90;;;;;;6127823;23;20414;-87
2021/09/15 05:11:50;;;;;;;14.87;13.47;;;21.20;99.90;;;;;;6147655;23;20442;-88
2021/09/15 05:14:17;;;;;;;15.23;13.73;;;21.20;99.90;;;;;;6137814;23;20448;-87
2021/09/15 05:16:45;;;;;;;13.80;12.47;;;21.20;99.90;;;;;;6128890;23;20412;-87
2021/09/15 05:19:12;;;;;;;14.23;12.23;;;21.10;99.90;;;;;;6126505;23;20436;-87
2021/09/15 05:21:38;;;;;;;17.00;15.27;;;21.10;99.90;;;;;;6126587;23;20429;-87
2021/09/15 05:24:05;;;;;;;17.70;14.87;;;20.90;99.90;;;;;;6125642;23;20407;-87
2021/09/15 05:26:32;;;;;;;17.60;15.70;;;20.90;99.90;;;;;;6126327;23;20473;-87
2021/09/15 05:29:01;;;;;;;18.20;14.40;;;20.90;99.90;;;;;;6126907;23;20415;-87
2021/09/15 05:31:28;;;;;;;14.80;13.30;;;20.80;99.90;;;;;;6127424;23;20444;-87
2021/09/15 05:33:56;;;;;;;16.20;13.20;;;20.80;99.90;;;;;;6131662;23;20448;-87
2021/09/15 05:36:23;;;;;;;15.73;14.20;;;20.70;99.90;;;;;;6128367;23;20408;-87
2021/09/15 05:38:50;;;;;;;14.97;13.57;;;20.60;99.90;;;;;;6128147;23;20384;-87
2021/09/15 05:41:16;;;;;;;15.63;14.10;;;20.60;99.90;;;;;;6128472;23;20811;-87
2021/09/15 05:43:43;;;;;;;17.57;14.40;;;20.60;99.90;;;;;;6129065;23;20399;-87
2021/09/15 05:46:10;;;;;;;15.27;13.83;;;20.50;99.90;;;;;;6138924;23;20477;-87
2021/09/15 05:48:37;;;;;;;14.80;13.30;;;20.50;99.90;;;;;;6144408;23;20439;-87
2021/09/15 05:51:05;;;;;;;14.60;13.37;;;20.40;99.90;;;;;;6129623;23;20432;-86
2021/09/15 05:53:32;;;;;;;15.47;13.77;;;20.20;99.90;;;;;;6130231;23;20448;-88
2021/09/15 05:55:59;;;;;;;15.10;13.57;;;20.20;99.90;;;;;;6127071;23;20738;-87
2021/09/15 05:58:25;;;;;;;15.87;14.27;;;20.20;99.90;;;;;;6140609;23;20436;-88
2021/09/15 06:00:52;;;;;;;15.50;13.63;;;20.30;99.90;;;;;;6149490;23;20432;-87
2021/09/15 06:03:18;;;;;;;16.70;13.90;;;20.20;99.90;;;;;;6130237;23;20427;-87
2021/09/15 06:05:45;;;;;;;11.40;10.40;;;20.20;99.90;;;;;;6131879;23;20400;-90
2021/09/15 06:08:13;;;;;;;13.83;12.43;;;20.20;99.90;;;;;;6147059;23;20954;-87
2021/09/15 06:10:40;;;;;;;13.07;11.47;;;20.10;99.90;;;;;;6129507;23;20468;-87
2021/09/15 06:13:07;;;;;;;11.67;10.63;;;20.10;99.90;;;;;;6128947;23;20787;-88
2021/09/15 06:15:33;;;;;;;11.30;10.20;;;20.20;99.90;;;;;;6128775;23;20396;-87
2021/09/15 06:18:00;;;;;;;12.07;11.00;;;20.10;99.90;;;;;;6127373;23;20423;-87
2021/09/15 06:20:27;;;;;;;13.30;11.30;;;20.10;99.90;;;;;;6127492;23;20423;-87
2021/09/15 06:22:53;;;;;;;11.47;10.37;;;20.20;99.90;;;;;;6129339;23;20439;-87
2021/09/15 06:25:23;;;;;;;12.13;10.93;;;20.20;99.90;;;;;;6126261;23;20407;-87
2021/09/15 06:28:08;;;;;;;17.40;14.13;;;20.20;99.90;;;;;;6147857;23;20383;-89
2021/09/15 06:30:35;;;;;;;14.13;12.73;;;20.10;99.90;;;;;;6145158;23;20388;-87
2021/09/15 06:33:02;;;;;;;14.13;12.77;;;20.10;99.90;;;;;;6131590;23;20513;-87
2021/09/15 06:35:28;;;;;;;11.80;10.80;;;20.10;99.90;;;;;;6131405;23;20779;-88
2021/09/15 06:37:55;;;;;;;13.73;11.10;;;20.10;99.90;;;;;;6129894;23;20422;-87
2021/09/15 06:40:23;;;;;;;13.50;12.10;;;20.10;99.90;;;;;;6131274;23;20408;-85
2021/09/15 06:42:50;;;;;;;13.40;11.60;;;20.00;99.90;;;;;;6130060;23;20435;-84
2021/09/15 06:45:17;;;;;;;13.40;12.10;;;20.00;99.90;;;;;;6136966;23;20465;-85
2021/09/15 06:47:45;;;;;;;13.57;12.40;;;20.00;99.90;;;;;;6135111;23;20435;-85
2021/09/15 06:50:14;;;;;;;12.40;11.20;;;20.00;99.90;;;;;;6131535;23;20416;-85
2021/09/15 06:52:41;;;;;;;12.73;11.53;;;20.00;99.90;;;;;;6138584;23;20439;-83
2021/09/15 06:55:09;;;;;;;13.47;12.17;;;20.00;99.90;;;;;;6154569;23;20465;-83
2021/09/15 06:57:37;;;;;;;12.53;11.00;;;20.00;99.90;;;;;;6146389;23;20798;-85
2021/09/15 07:00:05;;;;;;;13.67;12.00;;;20.00;99.90;;;;;;6145922;23;20423;-84
2021/09/15 07:02:32;;;;;;;14.17;11.77;;;20.00;99.90;;;;;;6147680;23;20473;-84
2021/09/15 07:04:59;;;;;;;12.37;11.03;;;20.00;99.90;;;;;;6137808;23;20419;-86
2021/09/15 07:07:26;;;;;;;11.93;10.90;;;20.10;99.90;;;;;;6130361;23;20403;-85
2021/09/15 07:09:53;;;;;;;12.30;11.20;;;20.20;99.90;;;;;;6127683;23;20403;-85
2021/09/15 07:12:19;;;;;;;12.53;11.43;;;20.20;99.90;;;;;;6128847;23;20432;-85
2021/09/15 07:14:49;;;;;;;14.20;11.53;;;20.20;99.90;;;;;;6132510;23;20439;-84
2021/09/15 07:17:15;;;;;;;13.37;12.17;;;20.20;99.90;;;;;;6140796;23;20412;-84
2021/09/15 07:19:42;;;;;;;11.77;10.17;;;20.20;99.90;;;;;;6151843;23;20412;-83
2021/09/15 07:22:09;;;;;;;14.30;10.83;;;20.20;99.90;;;;;;6135691;23;20426;-83
2021/09/15 07:24:35;;;;;;;12.70;11.40;;;20.20;99.90;;;;;;6136832;23;20408;-84
2021/09/15 07:27:02;;;;;;;12.97;11.40;;;20.20;99.90;;;;;;6137101;23;20415;-84
2021/09/15 07:29:29;;;;;;;11.17;9.90;;;20.30;99.90;;;;;;6130156;23;20438;-83
2021/09/15 07:31:57;;;;;;;16.23;11.23;;;20.30;99.90;;;;;;6131447;23;20439;-84
2021/09/15 07:34:24;;;;;;;11.47;10.30;;;20.40;99.90;;;;;;6140700;23;20463;-83
2021/09/15 07:36:51;;;;;;;10.67;9.37;;;20.50;99.90;;;;;;6135747;23;20408;-83
2021/09/15 07:39:17;;;;;;;12.37;10.33;;;20.50;99.90;;;;;;6132676;23;20419;-85
2021/09/15 07:41:47;;;;;;;12.43;9.93;;;20.50;99.90;;;;;;6132730;23;20933;-85
2021/09/15 07:44:16;;;;;;;16.47;11.00;;;20.40;99.90;;;;;;6136686;23;20427;-85
2021/09/15 07:46:42;;;;;;;16.10;11.10;;;20.50;99.90;;;;;;6136586;23;20407;-84
2021/09/15 07:49:10;;;;;;;18.30;11.53;;;20.60;99.90;;;;;;6133728;23;20404;-83
2021/09/15 07:51:37;;;;;;;13.70;12.40;;;20.70;99.90;;;;;;6150360;23;20428;-84
2021/09/15 07:54:05;;;;;;;13.57;12.13;;;20.80;99.90;;;;;;6149465;23;20446;-84
2021/09/15 07:56:31;;;;;;;16.40;11.03;;;20.80;99.90;;;;;;6140836;23;20408;-84
2021/09/15 07:58:58;;;;;;;13.17;10.73;;;20.90;99.90;;;;;;6132035;23;20420;-83
2021/09/15 08:01:25;;;;;;;12.60;11.30;;;20.90;99.90;;;;;;6128985;23;20431;-81
2021/09/15 08:03:52;;;;;;;13.40;11.43;;;20.80;99.90;;;;;;6129247;23;20420;-81
2021/09/15 08:06:20;;;;;;;12.40;11.30;;;20.80;99.90;;;;;;6131341;23;20411;-80
2021/09/15 08:08:47;;;;;;;13.10;11.80;;;20.90;99.90;;;;;;6136272;23;20434;-82
2021/09/15 08:11:14;;;;;;;12.60;10.47;;;20.90;99.90;;;;;;6129939;23;20439;-81
2021/09/15 08:13:41;;;;;;;15.47;11.30;;;21.00;99.90;;;;;;6135262;23;20399;-80
2021/09/15 08:16:07;;;;;;;11.40;10.20;;;21.00;99.90;;;;;;6144518;23;20783;-78
2021/09/15 08:18:35;;;;;;;11.40;10.40;;;21.10;99.90;;;;;;6136437;23;20680;-81
2021/09/15 08:21:02;;;;;;;11.93;10.70;;;21.20;99.90;;;;;;6145472;23;20413;-79
2021/09/15 08:23:30;;;;;;;13.87;11.60;;;21.20;99.90;;;;;;6149181;23;20452;-79
2021/09/15 08:25:57;;;;;;;16.20;12.57;;;21.20;99.90;;;;;;6136825;23;20718;-81
2021/09/15 08:28:24;;;;;;;14.00;11.30;;;21.20;99.90;;;;;;6134069;23;20431;-81
2021/09/15 08:30:50;;;;;;;13.50;11.33;;;21.20;99.90;;;;;;6134372;23;20427;-81
2021/09/15 08:33:17;;;;;;;12.90;11.60;;;21.20;99.90;;;;;;6132723;23;20385;-82
2021/09/15 08:35:44;;;;;;;12.67;11.50;;;21.00;99.90;;;;;;6133618;23;20448;-81
2021/09/15 08:38:11;;;;;;;14.57;11.60;;;21.10;99.90;;;;;;6132648;23;20405;-81
2021/09/15 08:40:40;;;;;;;13.53;10.33;;;21.20;99.90;;;;;;6132163;23;20408;-81
2021/09/15 08:43:07;;;;;;;14.53;11.20;;;21.20;99.90;;;;;;6135640;23;20728;-82
2021/09/15 08:45:34;;;;;;;11.73;10.63;;;21.20;99.90;;;;;;6132221;23;20785;-81
2021/09/15 08:48:02;;;;;;;12.43;11.33;;;21.20;99.90;;;;;;6135882;23;20410;-79
2021/09/15 08:50:30;;;;;;;10.67;9.67;;;21.20;99.90;;;;;;6135309;23;20444;-83
2021/09/15 08:52:57;;;;;;;7.37;6.70;;;21.10;99.90;;;;;;6128828;23;20414;-83
2021/09/15 08:55:24;;;;;;;6.83;6.23;;;20.90;99.90;;;;;;6128889;23;20518;-82
2021/09/15 08:57:52;;;;;;;11.30;7.80;;;20.80;99.90;;;;;;6128814;23;20426;-82
2021/09/15 09:00:19;;;;;;;7.63;6.27;;;20.70;99.90;;;;;;6133444;23;20458;-82
2021/09/15 09:02:50;;;;;;;8.73;7.90;;;20.60;99.90;;;;;;6132518;23;20507;-81
2021/09/15 09:05:17;;;;;;;7.87;7.17;;;20.60;99.90;;;;;;6138992;23;20411;-80
2021/09/15 09:07:44;;;;;;;10.00;7.90;;;20.60;99.90;;;;;;6134819;23;20901;-82
2021/09/15 09:10:13;;;;;;;6.90;6.30;;;20.60;99.90;;;;;;6132196;23;20408;-80
2021/09/15 09:12:44;;;;;;;8.53;7.63;;;20.50;99.90;;;;;;6133701;23;20545;-82
2021/09/15 09:15:19;;;;;;;7.43;6.73;;;20.60;99.90;;;;;;6131124;23;20431;-82
2021/09/15 09:17:47;;;;;;;6.53;5.87;;;20.60;99.90;;;;;;6140346;23;20387;-82
2021/09/15 09:20:19;;;;;;;5.67;5.17;;;20.60;99.90;;;;;;6146490;23;20472;-84
2021/09/15 09:23:06;;;;;;;7.33;5.53;;;20.70;99.90;;;;;;6148089;23;20438;-82
2021/09/15 09:25:34;;;;;;;6.50;5.50;;;20.70;99.90;;;;;;6145642;23;20388;-82
2021/09/15 09:28:01;;;;;;;6.00;4.97;;;20.70;99.90;;;;;;6148305;23;20395;-82
2021/09/15 09:30:35;;;;;;;5.80;5.07;;;20.70;99.90;;;;;;6140557;23;20412;-82
2021/09/15 09:33:02;;;;;;;5.37;4.80;;;20.50;99.90;;;;;;6114872;23;20384;-82
2021/09/15 09:35:40;;;;;;;6.53;5.93;;;20.30;99.90;;;;;;6111817;23;20511;-82
2021/09/15 09:38:29;;;;;;;4.87;4.17;;;20.20;99.90;;;;;;6113474;23;20411;-81
2021/09/15 09:41:03;;;;;;;4.90;4.50;;;20.10;99.90;;;;;;6114048;23;20416;-83
2021/09/15 09:43:31;;;;;;;5.83;4.53;;;20.00;99.90;;;;;;6106615;23;20392;-83
2021/09/15 09:46:00;;;;;;;5.53;4.30;;;19.90;99.90;;;;;;6106030;23;20426;-83
2021/09/15 09:48:39;;;;;;;5.53;4.90;;;20.00;99.90;;;;;;6105131;23;20416;-83
2021/09/15 09:51:25;;;;;;;6.20;5.30;;;20.00;99.90;;;;;;6106726;23;20435;-82
2021/09/15 09:54:06;;;;;;;6.23;5.30;;;20.00;99.90;;;;;;6107989;23;20419;-84
2021/09/15 09:56:34;;;;;;;6.40;5.80;;;20.10;99.90;;;;;;6108669;23;20450;-83
2021/09/15 09:59:01;;;;;;;6.53;5.90;;;20.10;99.90;;;;;;6113126;23;20416;-82
2021/09/15 10:01:32;;;;;;;6.00;5.30;;;20.20;99.90;;;;;;6114155;23;20492;-83
2021/09/15 10:04:00;;;;;;;6.33;5.63;;;20.30;99.90;;;;;;6107816;23;20727;-81
2021/09/15 10:06:27;;;;;;;6.40;5.40;;;20.50;99.90;;;;;;6106444;23;20495;-83
2021/09/15 10:08:54;;;;;;;7.00;5.00;;;20.70;99.90;;;;;;6106342;23;20413;-81
2021/09/15 10:11:22;;;;;;;8.50;5.73;;;20.90;99.90;;;;;;6106069;23;20485;-81
2021/09/15 10:13:49;;;;;;;5.70;5.20;;;21.10;99.90;;;;;;6100995;23;20911;-84
2021/09/15 10:16:19;;;;;;;8.10;6.47;;;21.20;99.90;;;;;;6113629;23;20433;-84
2021/09/15 10:18:54;;;;;;;5.77;5.17;;;21.50;99.90;;;;;;6119088;23;20468;-85
2021/09/15 10:21:26;;;;;;;6.23;5.63;;;21.90;99.90;;;;;;6102404;23;20434;-85
2021/09/15 10:23:53;;;;;;;5.90;5.00;;;22.10;99.90;;;;;;6101125;23;20395;-85
2021/09/15 10:26:39;;;;;;;5.77;5.27;;;22.30;99.90;;;;;;6100739;23;20415;-85
2021/09/15 10:29:28;;;;;;;8.33;6.90;;;22.60;99.90;;;;;;6107286;23;20399;-85
2021/09/15 10:31:59;;;;;;;6.73;6.00;;;22.60;99.90;;;;;;6123367;23;20462;-86
2021/09/15 10:34:54;;;;;;;6.97;6.27;;;22.70;99.90;;;;;;6127747;23;20438;-83
2021/09/15 10:37:49;;;;;;;7.60;6.63;;;22.70;99.90;;;;;;6135435;23;20421;-84
2021/09/15 10:40:34;;;;;;;16.03;8.70;;;22.90;99.90;;;;;;6116842;23;20422;-83
2021/09/15 10:43:01;;;;;;;12.50;7.67;;;23.00;99.90;;;;;;6139811;23;20399;-83
2021/09/15 10:45:30;;;;;;;9.00;7.30;;;23.00;99.90;;;;;;6135931;23;20403;-85
2021/09/15 10:47:59;;;;;;;7.90;7.10;;;23.00;99.90;;;;;;6135308;23;20459;-83
2021/09/15 10:50:53;;;;;;;8.37;7.00;;;22.90;99.90;;;;;;6133319;23;20417;-86
2021/09/15 10:53:22;;;;;;;9.80;6.40;;;22.80;99.90;;;;;;6133794;23;20407;-86
2021/09/15 10:55:52;;;;;;;8.23;6.30;;;22.60;99.90;;;;;;6135537;23;20462;-81
2021/09/15 10:58:21;;;;;;;7.10;6.40;;;22.60;99.90;;;;;;6143289;23;20395;-81
2021/09/15 11:00:50;;;;;;;8.00;6.23;;;22.40;99.90;;;;;;6145083;23;20771;-80
2021/09/15 11:03:31;;;;;;;7.07;6.47;;;22.30;99.90;;;;;;6144856;23;20410;-81
2021/09/15 11:06:19;;;;;;;7.57;6.20;;;22.40;99.90;;;;;;6144495;23;20506;-80
2021/09/15 11:08:47;;;;;;;6.70;6.10;;;22.30;99.90;;;;;;6144117;23;20390;-80
2021/09/15 11:11:48;;;;;;;8.00;5.30;;;22.30;99.90;;;;;;6144701;23;20418;-80
2021/09/15 11:14:17;;;;;;;5.90;5.40;;;22.40;99.90;;;;;;6145572;23;20401;-80
2021/09/15 11:16:44;;;;;;;6.63;5.93;;;22.50;99.90;;;;;;6144230;23;20398;-80
2021/09/15 11:19:13;;;;;;;7.33;6.47;;;22.70;99.90;;;;;;6142972;23;20413;-81
2021/09/15 11:21:44;;;;;;;6.90;6.20;;;22.80;99.90;;;;;;6144190;23;20413;-81
2021/09/15 11:24:14;;;;;;;7.50;6.57;;;22.70;99.90;;;;;;6144183;23;20368;-81
2021/09/15 11:26:44;;;;;;;7.13;6.40;;;22.70;99.90;;;;;;6147125;23;20395;-80
2021/09/15 11:29:12;;;;;;;7.10;6.50;;;22.70;99.90;;;;;;6152700;23;20391;-81
2021/09/15 11:31:41;;;;;;;8.87;7.93;;;22.80;99.90;;;;;;6145367;23;20482;-81
2021/09/15 11:34:10;;;;;;;8.33;6.37;;;22.80;99.90;;;;;;6144162;23;20806;-81
2021/09/15 11:36:37;;;;;;;9.60;6.63;;;22.80;99.90;;;;;;6143618;23;20446;-80
2021/09/15 11:39:07;;;;;;;8.60;6.23;;;22.90;99.90;;;;;;6143212;23;20464;-80
2021/09/15 11:41:34;;;;;;;6.60;6.00;;;22.90;99.90;;;;;;6143935;23;20415;-80
2021/09/15 11:44:01;;;;;;;7.57;6.87;;;23.00;99.90;;;;;;6144273;23;20411;-81
2021/09/15 11:46:35;;;;;;;6.83;6.23;;;23.00;99.90;;;;;;6143544;23;20427;-80
2021/09/15 11:49:03;;;;;;;6.50;6.00;;;22.80;99.90;;;;;;6143556;23;20403;-80
2021/09/15 11:51:33;;;;;;;6.60;5.90;;;22.70;99.90;;;;;;6146390;23;20411;-80
2021/09/15 11:54:05;;;;;;;9.47;7.50;;;22.60;99.90;;;;;;6144280;23;20403;-81
2021/09/15 11:56:36;;;;;;;7.67;6.83;;;22.60;99.90;;;;;;6143579;23;20450;-81
2021/09/15 11:59:03;;;;;;;8.53;6.00;;;22.60;99.90;;;;;;6143040;23;20470;-82
2021/09/15 12:01:32;;;;;;;8.10;6.60;;;22.60;99.90;;;;;;6143936;23;20407;-81
2021/09/15 12:04:03;;;;;;;10.90;7.60;;;22.50;99.90;;;;;;6144298;23;20893;-81
2021/09/15 12:06:31;;;;;;;7.53;6.50;;;22.50;99.90;;;;;;6143439;23;20403;-82
2021/09/15 12:08:58;;;;;;;8.30;6.10;;;22.60;99.90;;;;;;6141895;23;20422;-82
2021/09/15 12:11:30;;;;;;;8.97;6.30;;;22.60;99.90;;;;;;6143449;23;20417;-81
2021/09/15 12:14:01;;;;;;;6.67;6.07;;;22.60;99.90;;;;;;6143510;23;20402;-81
2021/09/15 12:16:30;;;;;;;7.03;6.23;;;22.70;99.90;;;;;;6142910;23;20454;-81
2021/09/15 12:18:57;;;;;;;9.80;7.77;;;22.70;99.90;;;;;;6147064;23;20403;-81
2021/09/15 12:21:25;;;;;;;6.80;6.20;;;22.70;99.90;;;;;;6149796;23;20410;-81
2021/09/15 12:24:01;;;;;;;9.00;6.40;;;22.70;99.90;;;;;;6149825;23;20419;-82
2021/09/15 12:26:29;;;;;;;7.80;6.73;;;22.80;99.90;;;;;;6148812;23;20402;-81
2021/09/15 12:29:03;;;;;;;7.03;6.07;;;22.70;99.90;;;;;;6147719;23;20407;-81
2021/09/15 12:31:44;;;;;;;10.63;6.67;;;22.70;99.90;;;;;;6149907;23;20451;-83
2021/09/15 12:34:11;;;;;;;7.23;5.30;;;22.70;99.90;;;;;;6143764;23;20455;-81
2021/09/15 12:36:38;;;;;;;6.97;6.33;;;22.70;99.90;;;;;;6144224;23;20443;-81
2021/09/15 12:39:11;;;;;;;7.47;6.67;;;22.70;99.90;;;;;;6144664;23;20407;-81
2021/09/15 12:41:57;;;;;;;7.13;6.43;;;22.70;99.90;;;;;;6143574;23;20395;-81
2021/09/15 12:44:32;;;;;;;6.73;5.90;;;22.80;99.90;;;;;;6144424;23;20431;-81
2021/09/15 12:47:04;;;;;;;7.30;6.60;;;22.80;99.90;;;;;;6143391;23;20459;-82